createdAt,value
2019-04-06T00:00:49.319Z,100815.77
2019-04-06T00:03:18.711Z,100807.38
2019-04-06T00:05:48.296Z,100812.53
2019-04-06T00:08:18.973Z,100812.53
2019-04-06T00:10:48.675Z,100810.70
2019-04-06T00:13:18.079Z,100800.03
2019-04-06T00:15:47.616Z,100802.89
2019-04-06T00:18:17.035Z,100803.46
2019-04-06T00:20:46.455Z,100808.13
2019-04-06T00:23:16.010Z,100813.66
2019-04-06T00:25:45.422Z,100802.02
2019-04-06T00:28:14.869Z,100815.45
2019-04-06T00:30:57.623Z,100813.91
2019-04-06T00:33:27.448Z,100812.66
2019-04-06T00:35:56.863Z,100821.11
2019-04-06T00:38:26.562Z,100821.92
2019-04-06T00:40:56.000Z,100827.91
2019-04-06T00:43:25.846Z,100825.69
2019-04-06T00:45:55.431Z,100833.87
2019-04-06T00:48:24.835Z,100828.42
2019-04-06T00:50:54.305Z,100831.67
2019-04-06T00:53:23.859Z,100826.10
2019-04-06T00:55:55.754Z,100830.97
2019-04-06T00:58:24.460Z,100827.66
2019-04-06T01:00:54.097Z,100832.92
2019-04-06T01:03:23.610Z,100838.95
2019-04-06T01:05:53.036Z,100841.86
2019-04-06T01:08:22.604Z,100838.89
2019-04-06T01:10:52.129Z,100841.33
2019-04-06T01:13:21.638Z,100858.41
2019-04-06T01:15:51.292Z,100849.81
2019-04-06T01:18:20.766Z,100852.62
2019-04-06T01:20:50.266Z,100866.71
2019-04-06T01:23:19.980Z,100873.84
2019-04-06T01:25:49.418Z,100868.61
2019-04-06T01:28:18.917Z,100877.28
2019-04-06T01:30:48.692Z,100877.61
2019-04-06T01:33:18.283Z,100871.69
2019-04-06T01:35:48.713Z,100872.23
2019-04-06T01:38:21.550Z,100870.40
2019-04-06T01:40:52.172Z,100873.79
2019-04-06T01:43:21.628Z,100867.42
2019-04-06T01:45:52.688Z,100865.31
2019-04-06T01:48:22.119Z,100858.93
2019-04-06T01:50:53.373Z,100861.13
2019-04-06T01:53:23.044Z,100857.28
2019-04-06T01:55:52.420Z,100861.37
2019-04-06T01:58:21.822Z,100861.37
2019-04-06T02:01:04.976Z,100868.34
2019-04-06T02:03:34.371Z,100863.11
2019-04-06T02:06:04.229Z,100864.44
2019-04-06T02:08:34.051Z,100855.18
2019-04-06T02:11:03.467Z,100852.47
2019-04-06T02:13:33.916Z,100846.27
2019-04-06T02:16:03.352Z,100846.27
2019-04-06T02:18:32.758Z,100846.64
2019-04-06T02:21:02.186Z,100844.67
2019-04-06T02:23:31.720Z,100839.77
2019-04-06T02:26:02.383Z,100844.31
2019-04-06T02:28:32.882Z,100849.39
2019-04-06T02:31:15.993Z,100846.42
2019-04-06T02:34:16.537Z,100844.45
2019-04-06T02:37:17.093Z,100837.75
2019-04-06T02:39:56.189Z,100833.71
2019-04-06T02:42:35.313Z,100833.30
2019-04-06T02:45:05.053Z,100834.45
2019-04-06T02:47:34.683Z,100833.11
2019-04-06T02:50:05.418Z,100834.30
2019-04-06T02:52:34.835Z,100825.27
2019-04-06T02:55:04.338Z,100822.14
2019-04-06T02:57:33.906Z,100821.77
2019-04-06T03:00:03.329Z,100819.48
2019-04-06T03:02:53.020Z,100812.73
2019-04-06T03:05:22.475Z,100819.11
2019-04-06T03:07:51.902Z,100816.23
2019-04-06T03:10:21.572Z,100813.23
2019-04-06T03:12:50.965Z,100816.58
2019-04-06T03:15:20.364Z,100808.51
2019-04-06T03:17:50.886Z,100804.80
2019-04-06T03:20:20.472Z,100811.08
2019-04-06T03:22:50.017Z,100809.53
2019-04-06T03:25:21.470Z,100813.50
2019-04-06T03:27:53.983Z,100808.64
2019-04-06T03:30:23.655Z,100812.22
2019-04-06T03:32:53.215Z,100803.91
2019-04-06T03:35:22.645Z,100806.78
2019-04-06T03:37:52.055Z,100803.81
2019-04-06T03:40:21.493Z,100809.05
2019-04-06T03:42:51.076Z,100807.13
2019-04-06T03:45:20.485Z,100810.47
2019-04-06T03:47:50.034Z,100809.45
2019-04-06T03:50:19.469Z,100809.45
2019-04-06T03:52:48.897Z,100815.64
2019-04-06T03:55:19.220Z,100802.80
2019-04-06T03:57:48.705Z,100807.98
2019-04-06T04:00:18.484Z,100814.88
2019-04-06T04:02:48.005Z,100815.20
2019-04-06T04:05:17.391Z,100815.20
2019-04-06T04:07:46.798Z,100811.26
2019-04-06T04:10:31.515Z,100810.63
2019-04-06T04:13:01.241Z,100816.73
2019-04-06T04:15:30.665Z,100813.84
2019-04-06T04:18:00.253Z,100812.02
2019-04-06T04:20:29.645Z,100809.59
2019-04-06T04:22:59.138Z,100812.75
2019-04-06T04:25:28.630Z,100805.69
2019-04-06T04:27:58.456Z,100809.55
2019-04-06T04:30:33.410Z,100813.63
2019-04-06T04:33:00.562Z,100814.36
2019-04-06T04:35:30.282Z,100814.68
2019-04-06T04:37:59.765Z,100807.71
2019-04-06T04:40:29.412Z,100814.36
2019-04-06T04:42:58.867Z,100816.09
2019-04-06T04:45:28.326Z,100814.54
2019-04-06T04:47:57.931Z,100815.41
2019-04-06T04:50:27.522Z,100820.81
2019-04-06T04:52:57.068Z,100822.64
2019-04-06T04:55:26.621Z,100818.94
2019-04-06T04:57:56.012Z,100818.06
2019-04-06T05:00:25.820Z,100821.36
2019-04-06T05:02:56.877Z,100822.05
2019-04-06T05:05:27.381Z,100819.48
2019-04-06T05:07:56.823Z,100817.23
2019-04-06T05:10:26.368Z,100822.64
2019-04-06T05:12:55.936Z,100819.58
2019-04-06T05:15:52.716Z,100823.47
2019-04-06T05:18:22.134Z,100815.91
2019-04-06T05:20:51.554Z,100815.41
2019-04-06T05:23:21.099Z,100819.39
2019-04-06T05:25:50.507Z,100825.64
2019-04-06T05:28:19.937Z,100819.22
2019-04-06T05:30:49.665Z,100822.89
2019-04-06T05:33:19.081Z,100828.20
2019-04-06T05:35:48.480Z,100832.16
2019-04-06T05:38:17.938Z,100826.75
2019-04-06T05:40:47.341Z,100826.75
2019-04-06T05:43:16.728Z,100832.05
2019-04-06T05:45:46.179Z,100825.62
2019-04-06T05:48:18.779Z,100830.91
2019-04-06T05:50:48.316Z,100839.75
2019-04-06T05:53:18.109Z,100835.34
2019-04-06T05:55:47.511Z,100845.10
2019-04-06T05:58:16.907Z,100839.30
2019-04-06T06:00:46.449Z,100834.13
2019-04-06T06:03:16.111Z,100838.52
2019-04-06T06:05:45.540Z,100838.77
2019-04-06T06:08:15.320Z,100840.06
2019-04-06T06:10:47.449Z,100833.45
2019-04-06T06:13:16.825Z,100830.15
2019-04-06T06:15:46.486Z,100842.45
2019-04-06T06:18:25.604Z,100838.92
2019-04-06T06:20:48.351Z,100833.66
2019-04-06T06:23:18.356Z,100836.44
2019-04-06T06:25:48.047Z,100829.97
2019-04-06T06:28:17.658Z,100826.17
2019-04-06T06:30:47.195Z,100827.91
2019-04-06T06:33:16.777Z,100831.50
2019-04-06T06:35:46.366Z,100839.41
2019-04-06T06:38:15.990Z,100834.09
2019-04-06T06:40:45.593Z,100832.20
2019-04-06T06:43:15.227Z,100828.28
2019-04-06T06:45:48.335Z,100821.70
2019-04-06T06:48:17.741Z,100817.31
2019-04-06T06:50:47.392Z,100819.30
2019-04-06T06:53:16.970Z,100810.26
2019-04-06T06:58:39.007Z,100825.01
2019-04-06T07:01:09.552Z,100826.80
2019-04-06T07:03:39.971Z,100824.29
2019-04-06T07:06:09.827Z,100817.55
2019-04-06T07:08:39.680Z,100820.63
2019-04-06T07:11:09.207Z,100826.00
2019-04-06T07:13:38.773Z,100825.91
2019-04-06T07:16:08.180Z,100817.19
2019-04-06T07:18:37.596Z,100828.58
2019-04-06T07:21:07.183Z,100834.47
2019-04-06T07:23:36.688Z,100840.59
2019-04-06T07:26:06.238Z,100836.08
2019-04-06T07:28:38.639Z,100834.53
2019-04-06T07:31:07.111Z,100835.34
2019-04-06T07:33:36.684Z,100830.78
2019-04-06T07:36:06.251Z,100830.41
2019-04-06T07:38:37.883Z,100841.47
2019-04-06T07:41:06.902Z,100847.63
2019-04-06T07:43:36.456Z,100832.86
2019-04-06T07:46:06.122Z,100832.34
2019-04-06T07:48:35.569Z,100837.25
2019-04-06T07:51:09.131Z,100828.03
2019-04-06T07:53:38.540Z,100827.52
2019-04-06T07:56:08.154Z,100828.67
2019-04-06T07:58:48.051Z,100832.50
2019-04-06T08:01:08.906Z,100829.17
2019-04-06T08:03:38.413Z,100818.59
2019-04-06T08:06:08.231Z,100815.14
2019-04-06T08:08:39.923Z,100806.44
2019-04-06T08:11:09.550Z,100795.06
2019-04-06T08:13:39.555Z,100797.77
2019-04-06T08:16:08.977Z,100801.12
2019-04-06T08:18:38.394Z,100808.17
2019-04-06T08:21:08.052Z,100813.16
2019-04-06T08:23:37.545Z,100815.08
2019-04-06T08:26:06.958Z,100810.70
2019-04-06T08:28:36.458Z,100811.57
2019-04-06T08:31:05.862Z,100807.39
2019-04-06T08:33:35.391Z,100795.48
2019-04-06T08:36:05.196Z,100788.95
2019-04-06T08:38:34.722Z,100799.27
2019-04-06T08:41:04.631Z,100797.73
2019-04-06T08:43:34.138Z,100796.17
2019-04-06T08:46:03.588Z,100799.05
2019-04-06T08:48:34.064Z,100802.17
2019-04-06T08:51:03.663Z,100800.63
2019-04-06T08:53:34.306Z,100802.03
2019-04-06T08:56:05.097Z,100809.23
2019-04-06T08:58:36.830Z,100806.33
2019-04-06T09:01:06.246Z,100808.98
2019-04-06T09:03:35.675Z,100795.03
2019-04-06T09:06:05.330Z,100796.18
2019-04-06T09:08:34.733Z,100800.67
2019-04-06T09:11:04.125Z,100800.22
2019-04-06T09:13:34.047Z,100804.98
2019-04-06T09:16:03.980Z,100811.16
2019-04-06T09:18:33.860Z,100808.36
2019-04-06T09:21:03.361Z,100815.14
2019-04-06T09:23:32.764Z,100809.42
2019-04-06T09:26:02.380Z,100805.58
2019-04-06T09:28:31.936Z,100803.11
2019-04-06T09:31:01.355Z,100794.36
2019-04-06T09:33:30.794Z,100792.37
2019-04-06T09:36:02.294Z,100794.70
2019-04-06T09:38:31.489Z,100793.26
2019-04-06T09:41:02.803Z,100786.79
2019-04-06T09:43:32.706Z,100782.49
2019-04-06T09:46:27.183Z,100781.11
2019-04-06T09:49:18.526Z,100780.52
2019-04-06T09:52:15.675Z,100783.40
2019-04-06T09:55:05.142Z,100785.45
2019-04-06T09:57:52.186Z,100786.38
2019-04-06T10:00:39.767Z,100780.88
2019-04-06T10:03:28.088Z,100775.73
2019-04-06T10:06:25.677Z,100776.59
2019-04-06T10:09:04.161Z,100763.59
2019-04-06T10:12:03.411Z,100766.78
2019-04-06T10:14:53.997Z,100768.58
2019-04-06T10:17:58.592Z,100760.09
2019-04-06T10:21:06.527Z,100759.19
2019-04-06T10:23:54.881Z,100760.05
2019-04-06T10:26:34.540Z,100750.88
2019-04-06T10:29:22.922Z,100753.02
2019-04-06T10:32:03.564Z,100750.84
2019-04-06T10:34:43.201Z,100739.41
2019-04-06T10:37:31.634Z,100741.62
2019-04-06T10:40:25.834Z,100746.59
2019-04-06T10:43:29.760Z,100745.05
2019-04-06T10:46:17.049Z,100743.83
2019-04-06T10:48:55.312Z,100736.67
2019-04-06T10:51:34.966Z,100741.48
2019-04-06T10:54:14.687Z,100745.09
2019-04-06T10:56:55.738Z,100744.69
2019-04-06T11:00:03.600Z,100744.08
2019-04-06T11:03:04.049Z,100736.49
2019-04-06T11:05:40.876Z,100740.92
2019-04-06T11:08:19.565Z,100745.31
2019-04-06T11:10:57.931Z,100739.98
2019-04-06T11:13:47.975Z,100735.50
2019-04-06T11:16:48.199Z,100724.80
2019-04-06T11:19:25.979Z,100732.98
2019-04-06T11:22:08.081Z,100732.73
2019-04-06T11:24:58.555Z,100730.61
2019-04-06T11:27:55.564Z,100724.27
2019-04-06T11:30:47.086Z,100727.89
2019-04-06T11:33:25.788Z,100722.88
2019-04-06T11:36:14.145Z,100720.23
2019-04-06T11:39:10.038Z,100715.48
2019-04-06T11:41:57.326Z,100708.41
2019-04-06T11:44:46.250Z,100709.08
2019-04-06T11:47:34.972Z,100712.64
2019-04-06T11:50:21.898Z,100709.27
2019-04-06T11:53:08.096Z,100704.52
2019-04-06T11:55:47.083Z,100696.33
2019-04-06T11:58:25.186Z,100700.84
2019-04-06T12:01:12.434Z,100705.53
2019-04-06T12:03:59.515Z,100706.44
2019-04-06T12:07:00.974Z,100700.95
2019-04-06T12:09:50.546Z,100700.66
2019-04-06T12:12:37.686Z,100702.04
2019-04-06T12:15:32.516Z,100701.05
2019-04-06T12:18:29.956Z,100696.08
2019-04-06T12:21:18.614Z,100700.61
2019-04-06T12:24:07.071Z,100699.62
2019-04-06T12:26:43.633Z,100694.70
2019-04-06T12:29:34.475Z,100700.12
2019-04-06T12:32:25.789Z,100701.67
2019-04-06T12:35:04.172Z,100698.59
2019-04-06T12:37:42.688Z,100694.34
2019-04-06T12:40:27.866Z,100692.20
2019-04-06T12:43:21.731Z,100691.71
2019-04-06T12:46:16.073Z,100697.83
2019-04-06T12:48:52.731Z,100691.37
2019-04-06T12:51:54.047Z,100679.69
2019-04-06T12:54:36.747Z,100675.66
2019-04-06T12:57:15.801Z,100673.48
2019-04-06T13:00:10.720Z,100676.67
2019-04-06T13:02:57.901Z,100682.33
2019-04-06T13:06:05.326Z,100662.88
2019-04-06T13:08:51.471Z,100666.59
2019-04-06T13:11:42.773Z,100665.95
2019-04-06T13:14:40.141Z,100666.99
2019-04-06T13:17:15.563Z,100652.77
2019-04-06T13:20:03.429Z,100661.91
2019-04-06T13:22:56.017Z,100653.47
2019-04-06T13:25:42.396Z,100664.83
2019-04-06T13:28:48.924Z,100656.91
2019-04-06T13:31:28.030Z,100650.65
2019-04-06T13:34:15.171Z,100648.11
2019-04-06T13:37:13.211Z,100652.02
2019-04-06T13:40:08.820Z,100643.00
2019-04-06T13:43:00.640Z,100643.87
2019-04-06T13:46:11.224Z,100642.95
2019-04-06T13:48:59.016Z,100646.41
2019-04-06T13:51:48.415Z,100640.48
2019-04-06T13:54:36.980Z,100642.68
2019-04-06T13:57:28.210Z,100628.95
2019-04-06T14:00:20.007Z,100633.20
2019-04-06T14:03:20.608Z,100629.81
2019-04-06T14:06:07.673Z,100628.45
2019-04-06T14:09:05.242Z,100628.28
2019-04-06T14:11:51.003Z,100629.48
2019-04-06T14:14:49.094Z,100626.09
2019-04-06T14:17:56.034Z,100624.72
2019-04-06T14:20:40.398Z,100626.27
2019-04-06T14:23:31.896Z,100620.83
2019-04-06T14:26:20.153Z,100625.59
2019-04-06T14:28:56.274Z,100622.02
2019-04-06T14:31:46.977Z,100615.73
2019-04-06T14:34:47.229Z,100619.12
2019-04-06T14:37:34.754Z,100607.41
2019-04-06T14:40:41.802Z,100611.30
2019-04-06T14:43:31.184Z,100616.06
2019-04-06T14:46:17.918Z,100613.34
2019-04-06T14:49:27.905Z,100605.72
2019-04-06T14:52:07.961Z,100614.39
2019-04-06T14:55:08.900Z,100612.35
2019-04-06T14:58:03.710Z,100616.58
2019-04-06T15:00:44.712Z,100603.34
2019-04-06T15:03:35.913Z,100611.62
2019-04-06T15:06:43.170Z,100617.27
2019-04-06T15:09:28.538Z,100613.36
2019-04-06T15:12:07.085Z,100608.94
2019-04-06T15:15:07.789Z,100607.58
2019-04-06T15:17:50.112Z,100606.91
2019-04-06T15:20:37.338Z,100606.06
2019-04-06T15:23:23.634Z,100606.22
2019-04-06T15:26:21.190Z,100611.82
2019-04-06T15:29:12.892Z,100625.70
2019-04-06T15:32:01.178Z,100620.30
2019-04-06T15:34:52.724Z,100620.78
2019-04-06T15:37:39.985Z,100617.67
2019-04-06T15:40:28.803Z,100620.08
2019-04-06T15:43:14.851Z,100622.61
2019-04-06T15:46:18.785Z,100617.86
2019-04-06T15:49:22.059Z,100618.03
2019-04-06T15:52:14.250Z,100619.38
2019-04-06T15:55:17.852Z,100618.20
2019-04-06T15:57:58.165Z,100615.03
2019-04-06T16:00:45.353Z,100619.46
2019-04-06T16:03:25.797Z,100604.20
2019-04-06T16:06:09.781Z,100615.58
2019-04-06T16:09:04.685Z,100613.85
2019-04-06T16:12:02.521Z,100626.25
2019-04-06T16:14:51.279Z,100619.95
2019-04-06T16:17:31.207Z,100621.30
2019-04-06T16:20:18.594Z,100630.23
2019-04-06T16:23:01.559Z,100629.19
2019-04-06T16:25:37.500Z,100639.12
2019-04-06T16:28:23.092Z,100649.05
2019-04-06T16:31:21.019Z,100646.66
2019-04-06T16:34:01.415Z,100644.28
2019-04-06T16:36:55.647Z,100645.76
2019-04-06T16:39:42.880Z,100648.16
2019-04-06T16:42:38.217Z,100651.53
2019-04-06T16:45:18.064Z,100646.75
2019-04-06T16:48:05.862Z,100642.62
2019-04-06T16:50:40.925Z,100643.74
2019-04-06T16:53:32.865Z,100648.76
2019-04-06T16:56:08.861Z,100650.28
2019-04-06T16:58:59.206Z,100648.59
2019-04-06T17:01:36.373Z,100650.36
2019-04-06T17:04:23.756Z,100649.01
2019-04-06T17:07:12.056Z,100651.02
2019-04-06T17:10:00.514Z,100654.67
2019-04-06T17:12:58.121Z,100661.92
2019-04-06T17:15:46.786Z,100664.59
2019-04-06T17:18:35.148Z,100664.14
2019-04-06T17:21:13.748Z,100658.76
2019-04-06T17:24:11.300Z,100663.36
2019-04-06T17:26:59.727Z,100669.30
2019-04-06T17:29:45.988Z,100674.29
2019-04-06T17:32:41.519Z,100673.32
2019-04-06T17:35:25.588Z,100676.56
2019-04-06T17:38:29.430Z,100704.66
2019-04-06T17:41:05.266Z,100675.73
2019-04-06T17:44:02.872Z,100683.44
2019-04-06T17:47:06.431Z,100690.20
2019-04-06T17:49:47.388Z,100688.95
2019-04-06T17:52:47.771Z,100685.33
2019-04-06T17:55:39.378Z,100686.58
2019-04-06T17:58:19.013Z,100690.01
2019-04-06T18:01:15.365Z,100691.03
2019-04-06T18:04:02.896Z,100688.56
2019-04-06T18:07:07.455Z,100686.22
2019-04-06T18:09:46.213Z,100691.42
2019-04-06T18:12:29.317Z,100696.95
2019-04-06T18:14:58.693Z,100700.84
2019-04-06T18:17:28.225Z,100701.06
2019-04-06T18:19:57.598Z,100702.48
2019-04-06T18:22:26.993Z,100702.06
2019-04-06T18:24:56.920Z,100704.24
2019-04-06T18:27:26.436Z,100706.95
2019-04-06T18:29:55.873Z,100709.50
2019-04-06T18:32:57.819Z,100716.98
2019-04-06T18:35:19.178Z,100716.98
2019-04-06T18:37:57.665Z,100721.09
2019-04-06T18:40:28.556Z,100728.29
2019-04-06T18:42:58.014Z,100732.19
2019-04-06T18:45:29.942Z,100727.00
2019-04-06T18:47:59.377Z,100731.44
2019-04-06T18:50:35.994Z,100737.70
2019-04-06T18:53:00.277Z,100742.90
2019-04-06T18:55:29.720Z,100746.50
2019-04-06T18:58:08.672Z,100751.70
2019-04-06T19:00:30.944Z,100749.91
2019-04-06T19:03:10.572Z,100748.06
2019-04-06T19:05:31.578Z,100743.92
2019-04-06T19:08:44.592Z,100747.03
2019-04-06T19:14:12.382Z,100748.77
2019-04-06T19:16:42.150Z,100753.55
2019-04-06T19:19:11.671Z,100749.20
2019-04-06T19:21:41.113Z,100748.60
2019-04-06T19:24:10.595Z,100752.16
2019-04-06T19:26:40.028Z,100751.56
2019-04-06T19:29:09.539Z,100755.86
2019-04-06T19:31:38.934Z,100762.77
2019-04-06T19:34:08.374Z,100762.77
2019-04-06T19:36:38.380Z,100755.69
2019-04-06T19:39:13.943Z,100758.39
2019-04-06T19:41:43.343Z,100759.62
2019-04-06T19:44:13.374Z,100761.98
2019-04-06T19:46:45.949Z,100756.73
2019-04-06T19:49:16.087Z,100755.75
2019-04-06T19:51:46.575Z,100758.47
2019-04-06T19:54:16.481Z,100747.15
2019-04-06T19:56:46.368Z,100754.84
2019-04-06T20:01:57.595Z,100756.41
2019-04-06T20:04:27.142Z,100753.60
2019-04-06T20:06:56.965Z,100759.37
2019-04-06T20:09:29.141Z,100757.55
2019-04-06T20:12:06.100Z,100762.53
2019-04-06T20:14:30.067Z,100757.55
2019-04-06T20:16:59.773Z,100756.69
2019-04-06T20:19:29.544Z,100759.37
2019-04-06T20:21:59.522Z,100757.30
2019-04-06T20:24:29.958Z,100755.34
2019-04-06T20:26:59.583Z,100756.70
2019-04-06T20:29:28.974Z,100749.73
2019-04-06T20:31:58.744Z,100752.86
2019-04-06T20:34:28.466Z,100751.65
2019-04-06T20:36:58.020Z,100748.01
2019-04-06T20:39:28.422Z,100751.05
2019-04-06T20:41:57.953Z,100747.14
2019-04-06T20:44:27.806Z,100745.31
2019-04-06T20:46:57.465Z,100748.73
2019-04-06T20:49:27.386Z,100748.34
2019-04-06T20:51:58.790Z,100752.84
2019-04-06T20:54:28.137Z,100754.57
2019-04-06T20:56:58.937Z,100746.38
2019-04-06T20:59:28.601Z,100751.59
2019-04-06T21:02:01.508Z,100744.27
2019-04-06T21:04:30.921Z,100749.52
2019-04-06T21:07:00.340Z,100754.50
2019-04-06T21:09:32.354Z,100746.43
2019-04-06T21:12:06.878Z,100753.84
2019-04-06T21:14:36.258Z,100752.95
2019-04-06T21:17:06.101Z,100757.08
2019-04-06T21:19:36.112Z,100751.23
2019-04-06T21:22:05.792Z,100753.78
2019-04-06T21:24:35.238Z,100753.63
2019-04-06T21:27:04.633Z,100747.83
2019-04-06T21:29:34.577Z,100760.34
2019-04-06T21:32:04.277Z,100759.84
2019-04-06T21:34:33.988Z,100761.30
2019-04-06T21:37:06.956Z,100762.75
2019-04-06T21:39:36.986Z,100762.61
2019-04-06T21:42:10.689Z,100759.33
2019-04-06T21:44:40.433Z,100760.02
2019-04-06T21:47:09.996Z,100757.45
2019-04-06T21:49:39.872Z,100750.37
2019-04-06T21:52:09.379Z,100758.67
2019-04-06T21:54:39.740Z,100759.06
2019-04-06T21:57:09.409Z,100758.05
2019-04-06T21:59:40.483Z,100756.95
2019-04-06T22:02:10.374Z,100751.84
2019-04-06T22:04:39.775Z,100753.93
2019-04-06T22:07:09.786Z,100754.37
2019-04-06T22:09:39.987Z,100755.11
2019-04-06T22:12:09.946Z,100754.96
2019-04-06T22:14:39.656Z,100753.42
2019-04-06T22:17:10.835Z,100755.86
2019-04-06T22:19:40.951Z,100762.33
2019-04-06T22:22:11.063Z,100752.98
2019-04-06T22:24:40.762Z,100753.15
2019-04-06T22:27:10.250Z,100756.53
2019-04-06T22:29:40.671Z,100756.73
2019-04-06T22:32:10.477Z,100754.01
2019-04-06T22:34:41.538Z,100753.97
2019-04-06T22:37:11.106Z,100750.43
2019-04-06T22:39:40.985Z,100748.30
2019-04-06T22:42:11.150Z,100755.18
2019-04-06T22:44:40.873Z,100749.55
2019-04-06T22:47:10.378Z,100746.94
2019-04-06T22:49:39.818Z,100749.27
2019-04-06T22:52:09.295Z,100749.27
2019-04-06T22:54:39.152Z,100747.77
2019-04-06T22:57:10.490Z,100750.40
2019-04-06T22:59:41.382Z,100745.75
2019-04-06T23:02:11.954Z,100749.56
2019-04-06T23:04:58.492Z,100742.27
2019-04-06T23:07:28.087Z,100747.73
2019-04-06T23:09:57.709Z,100744.28
2019-04-06T23:12:27.632Z,100749.16
2019-04-06T23:14:57.279Z,100747.18
2019-04-06T23:17:27.298Z,100742.41
2019-04-06T23:19:56.891Z,100748.16
2019-04-06T23:22:28.581Z,100754.17
2019-04-06T23:24:58.092Z,100751.89
2019-04-06T23:27:27.475Z,100743.70
2019-04-06T23:29:57.004Z,100751.03
2019-04-06T23:32:26.446Z,100751.61
2019-04-06T23:34:59.885Z,100749.97
2019-04-06T23:37:27.146Z,100746.03
2019-04-06T23:39:57.513Z,100741.44
2019-04-06T23:42:27.131Z,100742.59
2019-04-06T23:44:56.947Z,100742.83
2019-04-06T23:47:27.345Z,100743.30
2019-04-06T23:49:57.445Z,100745.08
2019-04-06T23:52:27.466Z,100747.19
2019-04-06T23:54:57.550Z,100745.75
2019-04-06T23:57:26.993Z,100745.91
2019-04-06T23:59:56.529Z,100743.97
